DLH117P EDDH-EDDN
Flight info
| Callsign | DLH117P |
|---|---|
| Flight time | 1h 0m |
| Altitude | 37000 |
| Route | AMLUH2G AMLUH M852 DENIX DCT ZUCKA DCT GALMA M736 TABAT Q244 NIBIL/N0406F230 Q244 PIVIR PIVIR1V |
| Aircraft | A320/M-SDE3FGHIRWY/LB1 |
Departure
| Time | 2026-04-24 13:11 |
|---|---|
| Airport | Hamburg Helmut Schmidt Airport (EDDH) |
Arrival
| Time | 2026-04-24 14:11 |
|---|---|
| Airport | Nuremberg Airport (EDDN) |
| Time | Latitude | Longitude | Altitude | Speed | Heading |
|---|---|---|---|---|---|
| 2026-04-24 12:40 | 53.63208 | 10.00365 | 51 ft | 0 kts | 87° |
| 2026-04-24 13:02 | 53.63207 | 10.00355 | 51 ft | 2 kts | 87° |
| 2026-04-24 13:02 | 53.63206 | 10.00327 | 51 ft | 2 kts | 87° |
| 2026-04-24 13:02 | 53.63205 | 10.00298 | 51 ft | 2 kts | 87° |
| 2026-04-24 13:03 | 53.63207 | 10.00270 | 51 ft | 2 kts | 143° |
| 2026-04-24 13:03 | 53.63208 | 10.00270 | 51 ft | 2 kts | 146° |
| 2026-04-24 13:03 | 53.63215 | 10.00263 | 46 ft | 0 kts | 172° |
| 2026-04-24 13:03 | 53.63223 | 10.00262 | 46 ft | 2 kts | 156° |
| 2026-04-24 13:04 | 53.63237 | 10.00250 | 51 ft | 2 kts | 154° |
| 2026-04-24 13:04 | 53.63246 | 10.00243 | 48 ft | 0 kts | 174° |
| 2026-04-24 13:08 | 53.63211 | 10.00249 | 51 ft | 11 kts | 174° |
| 2026-04-24 13:08 | 53.63134 | 10.00258 | 51 ft | 12 kts | 177° |
| 2026-04-24 13:08 | 53.63056 | 10.00244 | 51 ft | 12 kts | 205° |
| 2026-04-24 13:09 | 53.62873 | 10.00039 | 50 ft | 17 kts | 230° |
| 2026-04-24 13:09 | 53.62816 | 9.99858 | 48 ft | 18 kts | 253° |
| 2026-04-24 13:09 | 53.62884 | 9.99730 | 50 ft | 16 kts | 329° |
| 2026-04-24 13:09 | 53.62912 | 9.99704 | 50 ft | 0 kts | 332° |
| 2026-04-24 13:10 | 53.62927 | 9.99690 | 50 ft | 15 kts | 332° |
| 2026-04-24 13:10 | 53.63275 | 9.99391 | 51 ft | 93 kts | 332° |
| 2026-04-24 13:10 | 53.64028 | 9.98709 | 56 ft | 149 kts | 325° |
| 2026-04-24 13:10 | 53.64967 | 9.97798 | 558 ft | 161 kts | 327° |
| 2026-04-24 13:11 | 53.65971 | 9.96950 | 1362 ft | 162 kts | 329° |
| 2026-04-24 13:11 | 53.67030 | 9.96062 | 1902 ft | 181 kts | 329° |
| 2026-04-24 13:11 | 53.68222 | 9.95067 | 2527 ft | 198 kts | 335° |
| 2026-04-24 13:11 | 53.69597 | 9.94616 | 3449 ft | 205 kts | 359° |
| 2026-04-24 13:12 | 53.71028 | 9.94657 | 4393 ft | 207 kts | 359° |
| 2026-04-24 13:12 | 53.72455 | 9.95044 | 4882 ft | 211 kts | 24° |
| 2026-04-24 13:12 | 53.73498 | 9.96819 | 5106 ft | 223 kts | 59° |
| 2026-04-24 13:12 | 53.73899 | 9.99384 | 5177 ft | 227 kts | 73° |
| 2026-04-24 13:13 | 53.74089 | 10.02048 | 5192 ft | 232 kts | 89° |
| 2026-04-24 13:13 | 53.73745 | 10.04801 | 5503 ft | 254 kts | 108° |
| 2026-04-24 13:13 | 53.72877 | 10.07598 | 6044 ft | 280 kts | 116° |
| 2026-04-24 13:13 | 53.71913 | 10.10479 | 6841 ft | 291 kts | 116° |
| 2026-04-24 13:14 | 53.70906 | 10.13478 | 7742 ft | 297 kts | 116° |
| 2026-04-24 13:14 | 53.69857 | 10.16513 | 8666 ft | 303 kts | 121° |
| 2026-04-24 13:14 | 53.68440 | 10.19208 | 9622 ft | 312 kts | 138° |
| 2026-04-24 13:14 | 53.66606 | 10.21227 | 10446 ft | 323 kts | 154° |
| 2026-04-24 13:15 | 53.64402 | 10.22487 | 10813 ft | 347 kts | 165° |
| 2026-04-24 13:15 | 53.61990 | 10.23572 | 11187 ft | 369 kts | 166° |
| 2026-04-24 13:15 | 53.59475 | 10.24694 | 11890 ft | 377 kts | 166° |
| 2026-04-24 13:15 | 53.56921 | 10.25840 | 12729 ft | 382 kts | 166° |
| 2026-04-24 13:16 | 53.54340 | 10.27008 | 13550 ft | 386 kts | 165° |
| 2026-04-24 13:16 | 53.51735 | 10.28196 | 14365 ft | 390 kts | 166° |
| 2026-04-24 13:16 | 53.49107 | 10.29401 | 15131 ft | 393 kts | 166° |
| 2026-04-24 13:16 | 53.46459 | 10.30615 | 15880 ft | 396 kts | 166° |
| 2026-04-24 13:17 | 53.43787 | 10.31839 | 16622 ft | 400 kts | 166° |
| 2026-04-24 13:17 | 53.41090 | 10.33072 | 17366 ft | 403 kts | 166° |
| 2026-04-24 13:17 | 53.38370 | 10.34304 | 18085 ft | 407 kts | 167° |
| 2026-04-24 13:17 | 53.35624 | 10.35539 | 18738 ft | 411 kts | 167° |
| 2026-04-24 13:18 | 53.32853 | 10.36781 | 19345 ft | 414 kts | 167° |
| 2026-04-24 13:18 | 53.30056 | 10.38032 | 19953 ft | 417 kts | 167° |
| 2026-04-24 13:18 | 53.27243 | 10.39287 | 20551 ft | 420 kts | 167° |
| 2026-04-24 13:18 | 53.24408 | 10.40552 | 21151 ft | 423 kts | 168° |
| 2026-04-24 13:19 | 53.21596 | 10.41808 | 21726 ft | 426 kts | 168° |
| 2026-04-24 13:19 | 53.18724 | 10.43089 | 22310 ft | 429 kts | 168° |
| 2026-04-24 13:19 | 53.15826 | 10.44377 | 22879 ft | 432 kts | 168° |
| 2026-04-24 13:19 | 53.12915 | 10.45664 | 23443 ft | 435 kts | 169° |
| 2026-04-24 13:20 | 53.09960 | 10.46816 | 23957 ft | 437 kts | 171° |
| 2026-04-24 13:20 | 53.06972 | 10.47802 | 24436 ft | 439 kts | 173° |
| 2026-04-24 13:20 | 53.03955 | 10.48687 | 24913 ft | 441 kts | 174° |
| 2026-04-24 13:20 | 53.00916 | 10.49536 | 25376 ft | 444 kts | 174° |
| 2026-04-24 13:21 | 52.97864 | 10.50397 | 25839 ft | 446 kts | 174° |
| 2026-04-24 13:21 | 52.94798 | 10.51297 | 26285 ft | 449 kts | 173° |
| 2026-04-24 13:21 | 52.91714 | 10.52235 | 26733 ft | 452 kts | 173° |
| 2026-04-24 13:21 | 52.88614 | 10.53196 | 27188 ft | 454 kts | 173° |
| 2026-04-24 13:22 | 52.85492 | 10.54171 | 27635 ft | 457 kts | 173° |
| 2026-04-24 13:22 | 52.82362 | 10.55148 | 28061 ft | 459 kts | 173° |
| 2026-04-24 13:22 | 52.79217 | 10.56123 | 28481 ft | 461 kts | 173° |
| 2026-04-24 13:22 | 52.76052 | 10.57100 | 28886 ft | 463 kts | 173° |
| 2026-04-24 13:23 | 52.72875 | 10.58075 | 29304 ft | 465 kts | 173° |
| 2026-04-24 13:23 | 52.69687 | 10.59051 | 29703 ft | 467 kts | 173° |
| 2026-04-24 13:23 | 52.66474 | 10.60032 | 30029 ft | 471 kts | 173° |
| 2026-04-24 13:23 | 52.63240 | 10.61017 | 30354 ft | 474 kts | 173° |
| 2026-04-24 13:24 | 52.59990 | 10.62007 | 30699 ft | 475 kts | 173° |
| 2026-04-24 13:24 | 52.56746 | 10.62994 | 31148 ft | 474 kts | 173° |
| 2026-04-24 13:24 | 52.53511 | 10.63980 | 31605 ft | 472 kts | 174° |
| 2026-04-24 13:24 | 52.50285 | 10.64963 | 32056 ft | 470 kts | 174° |
| 2026-04-24 13:25 | 52.47073 | 10.65937 | 32537 ft | 468 kts | 174° |
| 2026-04-24 13:25 | 52.43874 | 10.66905 | 32985 ft | 467 kts | 174° |
| 2026-04-24 13:25 | 52.40684 | 10.67868 | 33446 ft | 466 kts | 174° |
| 2026-04-24 13:25 | 52.37502 | 10.68828 | 33895 ft | 464 kts | 174° |
| 2026-04-24 13:26 | 52.34318 | 10.69792 | 34322 ft | 463 kts | 174° |
| 2026-04-24 13:26 | 52.31151 | 10.70753 | 34702 ft | 462 kts | 174° |
| 2026-04-24 13:26 | 52.27990 | 10.71712 | 35088 ft | 461 kts | 174° |
| 2026-04-24 13:26 | 52.24836 | 10.72665 | 35486 ft | 460 kts | 174° |
| 2026-04-24 13:27 | 52.21699 | 10.73606 | 35892 ft | 458 kts | 175° |
| 2026-04-24 13:27 | 52.18566 | 10.74540 | 36268 ft | 457 kts | 175° |
| 2026-04-24 13:27 | 52.15436 | 10.75473 | 36625 ft | 456 kts | 175° |
| 2026-04-24 13:27 | 52.12317 | 10.76404 | 36964 ft | 456 kts | 175° |
| 2026-04-24 13:28 | 52.09194 | 10.77333 | 37159 ft | 456 kts | 175° |
| 2026-04-24 13:28 | 52.06074 | 10.78257 | 37185 ft | 455 kts | 175° |
| 2026-04-24 13:28 | 51.99838 | 10.80105 | 37181 ft | 455 kts | 175° |
| 2026-04-24 13:29 | 51.93645 | 10.81941 | 37180 ft | 457 kts | 174° |
| 2026-04-24 13:29 | 51.87369 | 10.83790 | 37175 ft | 459 kts | 174° |
| 2026-04-24 13:30 | 51.81036 | 10.85661 | 37173 ft | 459 kts | 174° |
| 2026-04-24 13:30 | 51.74746 | 10.87512 | 37169 ft | 460 kts | 174° |
| 2026-04-24 13:31 | 51.68652 | 10.90866 | 37178 ft | 470 kts | 154° |
| 2026-04-24 13:31 | 51.63566 | 10.97439 | 37173 ft | 478 kts | 133° |
| 2026-04-24 13:32 | 51.60077 | 11.04460 | 37170 ft | 479 kts | 130° |
| 2026-04-24 13:32 | 51.55927 | 11.12851 | 37168 ft | 480 kts | 131° |
| 2026-04-24 13:33 | 51.51073 | 11.22596 | 37164 ft | 480 kts | 130° |
| 2026-04-24 13:33 | 51.47573 | 11.29612 | 37157 ft | 480 kts | 130° |
| 2026-04-24 13:34 | 51.43216 | 11.37693 | 37167 ft | 476 kts | 141° |
| 2026-04-24 13:34 | 51.37773 | 11.43349 | 37172 ft | 467 kts | 161° |
| 2026-04-24 13:35 | 51.31584 | 11.45890 | 37166 ft | 455 kts | 180° |
| 2026-04-24 13:35 | 51.25276 | 11.46488 | 37163 ft | 454 kts | 181° |
| 2026-04-24 13:36 | 51.18965 | 11.47104 | 37154 ft | 455 kts | 180° |
| 2026-04-24 13:36 | 51.12600 | 11.47742 | 37154 ft | 456 kts | 180° |
| 2026-04-24 13:37 | 51.06258 | 11.48356 | 37159 ft | 457 kts | 180° |
| 2026-04-24 13:37 | 50.99901 | 11.48948 | 37144 ft | 458 kts | 180° |
| 2026-04-24 13:38 | 50.93567 | 11.49555 | 37157 ft | 458 kts | 180° |
| 2026-04-24 13:38 | 50.87199 | 11.50160 | 37170 ft | 459 kts | 180° |
| 2026-04-24 13:39 | 50.80828 | 11.50766 | 37176 ft | 458 kts | 180° |
| 2026-04-24 13:39 | 50.74462 | 11.51366 | 37165 ft | 458 kts | 180° |
| 2026-04-24 13:40 | 50.68102 | 11.51962 | 37165 ft | 457 kts | 180° |
| 2026-04-24 13:40 | 50.61747 | 11.52559 | 37168 ft | 457 kts | 180° |
| 2026-04-24 13:41 | 50.55394 | 11.53177 | 37162 ft | 458 kts | 179° |
| 2026-04-24 13:41 | 50.49049 | 11.54266 | 37163 ft | 459 kts | 175° |
| 2026-04-24 13:42 | 50.42717 | 11.55718 | 37163 ft | 460 kts | 175° |
| 2026-04-24 13:42 | 50.36379 | 11.57146 | 37166 ft | 460 kts | 175° |
| 2026-04-24 13:43 | 50.30031 | 11.58462 | 36977 ft | 460 kts | 176° |
| 2026-04-24 13:43 | 50.26849 | 11.59096 | 36701 ft | 461 kts | 175° |
| 2026-04-24 13:43 | 50.23663 | 11.59725 | 36441 ft | 462 kts | 175° |
| 2026-04-24 13:44 | 50.20469 | 11.60362 | 36182 ft | 463 kts | 175° |
| 2026-04-24 13:44 | 50.17270 | 11.61007 | 35925 ft | 464 kts | 175° |
| 2026-04-24 13:44 | 50.14070 | 11.61660 | 35672 ft | 464 kts | 175° |
| 2026-04-24 13:44 | 50.10865 | 11.62317 | 35338 ft | 464 kts | 175° |
| 2026-04-24 13:45 | 50.07659 | 11.62870 | 34625 ft | 463 kts | 180° |
| 2026-04-24 13:45 | 50.04466 | 11.62766 | 33556 ft | 457 kts | 186° |
| 2026-04-24 13:45 | 50.01280 | 11.62402 | 31996 ft | 461 kts | 186° |
| 2026-04-24 13:45 | 49.98067 | 11.61969 | 30409 ft | 465 kts | 190° |
| 2026-04-24 13:46 | 49.94909 | 11.60892 | 28721 ft | 465 kts | 200° |
| 2026-04-24 13:46 | 49.91943 | 11.59060 | 27695 ft | 450 kts | 207° |
| 2026-04-24 13:46 | 49.89217 | 11.57134 | 27531 ft | 422 kts | 206° |
| 2026-04-24 13:46 | 49.86595 | 11.55340 | 27051 ft | 403 kts | 206° |
| 2026-04-24 13:47 | 49.84049 | 11.53620 | 26290 ft | 395 kts | 206° |
| 2026-04-24 13:47 | 49.81550 | 11.51919 | 25480 ft | 389 kts | 206° |
| 2026-04-24 13:47 | 49.79094 | 11.50229 | 24676 ft | 385 kts | 206° |
| 2026-04-24 13:47 | 49.76664 | 11.48543 | 23893 ft | 380 kts | 207° |
| 2026-04-24 13:48 | 49.74368 | 11.46587 | 23028 ft | 373 kts | 217° |
| 2026-04-24 13:48 | 49.72385 | 11.44072 | 22195 ft | 365 kts | 228° |
| 2026-04-24 13:48 | 49.70765 | 11.41114 | 21425 ft | 357 kts | 239° |
| 2026-04-24 13:48 | 49.69569 | 11.37899 | 21174 ft | 335 kts | 248° |
| 2026-04-24 13:49 | 49.68749 | 11.34604 | 20684 ft | 323 kts | 257° |
| 2026-04-24 13:49 | 49.68298 | 11.31261 | 20093 ft | 315 kts | 266° |
| 2026-04-24 13:49 | 49.68189 | 11.27907 | 19503 ft | 310 kts | 274° |
| 2026-04-24 13:49 | 49.68403 | 11.24624 | 18923 ft | 306 kts | 281° |
| 2026-04-24 13:50 | 49.68732 | 11.21394 | 18503 ft | 304 kts | 281° |
| 2026-04-24 13:50 | 49.69059 | 11.18149 | 17743 ft | 306 kts | 281° |
| 2026-04-24 13:50 | 49.69388 | 11.14844 | 16698 ft | 316 kts | 281° |
| 2026-04-24 13:50 | 49.69724 | 11.11454 | 15700 ft | 323 kts | 281° |
| 2026-04-24 13:51 | 49.70064 | 11.07983 | 14723 ft | 328 kts | 281° |
| 2026-04-24 13:51 | 49.70406 | 11.04475 | 13758 ft | 331 kts | 281° |
| 2026-04-24 13:51 | 49.70750 | 11.00943 | 12705 ft | 333 kts | 281° |
| 2026-04-24 13:51 | 49.71092 | 10.97414 | 11704 ft | 332 kts | 281° |
| 2026-04-24 13:52 | 49.71432 | 10.93890 | 10719 ft | 331 kts | 281° |
| 2026-04-24 13:52 | 49.71768 | 10.90389 | 9740 ft | 328 kts | 281° |
| 2026-04-24 13:52 | 49.72007 | 10.86901 | 8690 ft | 327 kts | 272° |
| 2026-04-24 13:52 | 49.71708 | 10.83434 | 7681 ft | 327 kts | 257° |
| 2026-04-24 13:53 | 49.70827 | 10.80208 | 6701 ft | 327 kts | 241° |
| 2026-04-24 13:53 | 49.69453 | 10.77501 | 5907 ft | 320 kts | 226° |
| 2026-04-24 13:53 | 49.67725 | 10.75423 | 5104 ft | 312 kts | 213° |
| 2026-04-24 13:53 | 49.65780 | 10.74129 | 4669 ft | 296 kts | 198° |
| 2026-04-24 13:54 | 49.63825 | 10.73663 | 4417 ft | 275 kts | 177° |
| 2026-04-24 13:54 | 49.62119 | 10.74644 | 4242 ft | 257 kts | 140° |
| 2026-04-24 13:54 | 49.61184 | 10.76890 | 4074 ft | 251 kts | 99° |
| 2026-04-24 13:54 | 49.61125 | 10.79569 | 3942 ft | 252 kts | 84° |
| 2026-04-24 13:55 | 49.61246 | 10.82281 | 3823 ft | 254 kts | 83° |
| 2026-04-24 13:55 | 49.61370 | 10.84992 | 3680 ft | 252 kts | 84° |
| 2026-04-24 13:55 | 49.61495 | 10.87709 | 3573 ft | 253 kts | 84° |
| 2026-04-24 13:55 | 49.61619 | 10.90419 | 3573 ft | 253 kts | 85° |
| 2026-04-24 13:56 | 49.61547 | 10.93138 | 3645 ft | 256 kts | 94° |
| 2026-04-24 13:56 | 49.61306 | 10.95825 | 3702 ft | 256 kts | 98° |
| 2026-04-24 13:56 | 49.61005 | 10.98524 | 3712 ft | 255 kts | 99° |
| 2026-04-24 13:56 | 49.60696 | 11.01215 | 3708 ft | 255 kts | 99° |
| 2026-04-24 13:57 | 49.60397 | 11.03908 | 3706 ft | 254 kts | 98° |
| 2026-04-24 13:57 | 49.60110 | 11.06598 | 3703 ft | 254 kts | 98° |
| 2026-04-24 13:57 | 49.59832 | 11.09294 | 3712 ft | 255 kts | 98° |
| 2026-04-24 13:57 | 49.59560 | 11.11986 | 3711 ft | 255 kts | 97° |
| 2026-04-24 13:58 | 49.59287 | 11.14717 | 4382 ft | 261 kts | 97° |
| 2026-04-24 13:58 | 49.59009 | 11.17495 | 4834 ft | 261 kts | 98° |
| 2026-04-24 13:58 | 49.58729 | 11.20314 | 4967 ft | 274 kts | 97° |
| 2026-04-24 13:58 | 49.58438 | 11.23248 | 5000 ft | 279 kts | 97° |
| 2026-04-24 13:59 | 49.58143 | 11.26211 | 4984 ft | 281 kts | 97° |
| 2026-04-24 13:59 | 49.57844 | 11.29182 | 4988 ft | 280 kts | 97° |
| 2026-04-24 13:59 | 49.57544 | 11.32168 | 4978 ft | 282 kts | 98° |
| 2026-04-24 13:59 | 49.57245 | 11.35146 | 4983 ft | 282 kts | 97° |
| 2026-04-24 14:00 | 49.56946 | 11.38133 | 4976 ft | 283 kts | 98° |
| 2026-04-24 14:00 | 49.56646 | 11.41113 | 4980 ft | 276 kts | 97° |
| 2026-04-24 14:00 | 49.56356 | 11.43949 | 4979 ft | 259 kts | 97° |
| 2026-04-24 14:00 | 49.56084 | 11.46596 | 4977 ft | 252 kts | 98° |
| 2026-04-24 14:01 | 49.55809 | 11.49274 | 4980 ft | 249 kts | 97° |
| 2026-04-24 14:01 | 49.55537 | 11.51920 | 4977 ft | 249 kts | 97° |
| 2026-04-24 14:01 | 49.55267 | 11.54554 | 4973 ft | 249 kts | 97° |
| 2026-04-24 14:01 | 49.54998 | 11.57190 | 4972 ft | 249 kts | 97° |
| 2026-04-24 14:02 | 49.54586 | 11.59740 | 4971 ft | 250 kts | 113° |
| 2026-04-24 14:02 | 49.53624 | 11.61964 | 4969 ft | 252 kts | 136° |
| 2026-04-24 14:02 | 49.52204 | 11.63521 | 4968 ft | 250 kts | 158° |
| 2026-04-24 14:02 | 49.50547 | 11.64201 | 4974 ft | 246 kts | 179° |
| 2026-04-24 14:03 | 49.48866 | 11.63998 | 4976 ft | 240 kts | 198° |
| 2026-04-24 14:03 | 49.47356 | 11.62996 | 4977 ft | 235 kts | 217° |
| 2026-04-24 14:03 | 49.46148 | 11.61335 | 4975 ft | 233 kts | 234° |
| 2026-04-24 14:03 | 49.45351 | 11.59211 | 4944 ft | 226 kts | 253° |
| 2026-04-24 14:04 | 49.45018 | 11.56895 | 4570 ft | 222 kts | 270° |
| 2026-04-24 14:04 | 49.45156 | 11.54538 | 4229 ft | 222 kts | 280° |
| 2026-04-24 14:04 | 49.45396 | 11.52220 | 4042 ft | 216 kts | 281° |
| 2026-04-24 14:04 | 49.45633 | 11.49930 | 3980 ft | 219 kts | 280° |
| 2026-04-24 14:05 | 49.45870 | 11.47610 | 3981 ft | 219 kts | 279° |
| 2026-04-24 14:05 | 49.46098 | 11.45373 | 3982 ft | 204 kts | 280° |
| 2026-04-24 14:05 | 49.46311 | 11.43286 | 3974 ft | 190 kts | 281° |
| 2026-04-24 14:05 | 49.46505 | 11.41376 | 3978 ft | 174 kts | 279° |
| 2026-04-24 14:06 | 49.46666 | 11.39662 | 4580 ft | 153 kts | 280° |
| 2026-04-24 14:06 | 49.46845 | 11.37964 | 4908 ft | 166 kts | 282° |
| 2026-04-24 14:06 | 49.47035 | 11.36147 | 4554 ft | 177 kts | 281° |
| 2026-04-24 14:06 | 49.47228 | 11.34252 | 4285 ft | 181 kts | 280° |
| 2026-04-24 14:07 | 49.47418 | 11.32365 | 4037 ft | 177 kts | 281° |
| 2026-04-24 14:07 | 49.47604 | 11.30526 | 3778 ft | 171 kts | 281° |
| 2026-04-24 14:07 | 49.47786 | 11.28717 | 3553 ft | 171 kts | 281° |
| 2026-04-24 14:07 | 49.47964 | 11.26944 | 3327 ft | 163 kts | 280° |
| 2026-04-24 14:08 | 49.48130 | 11.25283 | 3125 ft | 152 kts | 281° |
| 2026-04-24 14:08 | 49.48290 | 11.23692 | 2924 ft | 151 kts | 281° |
| 2026-04-24 14:08 | 49.48449 | 11.22101 | 2723 ft | 151 kts | 280° |
| 2026-04-24 14:08 | 49.48606 | 11.20529 | 2531 ft | 146 kts | 279° |
| 2026-04-24 14:09 | 49.48759 | 11.19001 | 2342 ft | 142 kts | 281° |
| 2026-04-24 14:09 | 49.48901 | 11.17568 | 2158 ft | 130 kts | 282° |
| 2026-04-24 14:09 | 49.49035 | 11.16234 | 1983 ft | 124 kts | 279° |
| 2026-04-24 14:09 | 49.49164 | 11.14925 | 1793 ft | 125 kts | 278° |
| 2026-04-24 14:10 | 49.49250 | 11.14053 | 1671 ft | 124 kts | 280° |
| 2026-04-24 14:10 | 49.49424 | 11.12280 | 1460 ft | 125 kts | 281° |
| 2026-04-24 14:10 | 49.49561 | 11.10962 | 1270 ft | 124 kts | 281° |
| 2026-04-24 14:10 | 49.49685 | 11.09656 | 1116 ft | 123 kts | 281° |
| 2026-04-24 14:11 | 49.49817 | 11.08409 | 1038 ft | 111 kts | 280° |
| 2026-04-24 14:11 | 49.49906 | 11.07455 | 1033 ft | 56 kts | 278° |
| 2026-04-24 14:11 | 49.49871 | 11.07024 | 1025 ft | 13 kts | 169° |
| 2026-04-24 14:12 | 49.49819 | 11.07050 | 1022 ft | 0 kts | 158° |
| 2026-04-24 14:13 | 49.49818 | 11.07051 | 1022 ft | 1 kts | 158° |
| 2026-04-24 14:13 | 49.49753 | 11.07112 | 1025 ft | 16 kts | 123° |
| 2026-04-24 14:13 | 49.49731 | 11.07260 | 1027 ft | 14 kts | 97° |
| 2026-04-24 14:14 | 49.49716 | 11.07418 | 1028 ft | 14 kts | 98° |
| 2026-04-24 14:14 | 49.49703 | 11.07552 | 1033 ft | 11 kts | 98° |
| 2026-04-24 14:14 | 49.49623 | 11.07764 | 1030 ft | 12 kts | 178° |
| 2026-04-24 14:15 | 49.49550 | 11.07795 | 1029 ft | 7 kts | 184° |
| 2026-04-24 14:15 | 49.49521 | 11.07790 | 1026 ft | 0 kts | 187° |
| 2026-04-24 14:15 | 49.49515 | 11.07789 | 1028 ft | 0 kts | 187° |
| 2026-04-24 14:27 | 49.49516 | 11.07790 | 1052 ft | 0 kts | 188° |